sensor_id;sensor_type;location;lat;lon;timestamp;pressure;altitude;pressure_sealevel;temperature;humidity
74561;BME280;62979;55.720;37.606;2023-04-25T00:00:26;99563.38;;;17.71;31.32
74561;BME280;62979;55.720;37.606;2023-04-25T00:02:53;99573.19;;;17.69;31.68
74561;BME280;62979;55.720;37.606;2023-04-25T00:05:22;99560.72;;;17.71;31.63
74561;BME280;62979;55.720;37.606;2023-04-25T00:07:49;99564.63;;;17.80;31.54
74561;BME280;62979;55.720;37.606;2023-04-25T00:10:16;99561.31;;;17.76;31.49
74561;BME280;62979;55.720;37.606;2023-04-25T00:12:43;99567.31;;;17.64;31.83
74561;BME280;62979;55.720;37.606;2023-04-25T00:15:11;99581.72;;;17.58;33.06
74561;BME280;62979;55.720;37.606;2023-04-25T00:17:38;99579.53;;;17.33;34.51
74561;BME280;62979;55.720;37.606;2023-04-25T00:20:06;99584.56;;;17.22;35.08
74561;BME280;62979;55.720;37.606;2023-04-25T00:22:36;99574.75;;;17.24;35.20
74561;BME280;62979;55.720;37.606;2023-04-25T00:25:04;99575.63;;;17.24;35.25
74561;BME280;62979;55.720;37.606;2023-04-25T00:27:32;99568.19;;;17.15;35.10
74561;BME280;62979;55.720;37.606;2023-04-25T00:29:59;99569.63;;;17.21;34.95
74561;BME280;62979;55.720;37.606;2023-04-25T00:32:26;99566.06;;;17.22;34.89
74561;BME280;62979;55.720;37.606;2023-04-25T00:34:53;99573.06;;;17.23;35.40
74561;BME280;62979;55.720;37.606;2023-04-25T00:37:21;99565.91;;;17.25;35.70
74561;BME280;62979;55.720;37.606;2023-04-25T00:39:49;99561.28;;;17.13;34.86
74561;BME280;62979;55.720;37.606;2023-04-25T00:42:19;99557.00;;;17.10;35.31
74561;BME280;62979;55.720;37.606;2023-04-25T00:44:46;99566.03;;;17.06;36.46
74561;BME280;62979;55.720;37.606;2023-04-25T00:47:15;99566.88;;;17.06;36.34
74561;BME280;62979;55.720;37.606;2023-04-25T00:49:42;99563.63;;;17.01;35.54
74561;BME280;62979;55.720;37.606;2023-04-25T00:52:09;99572.34;;;17.03;35.53
74561;BME280;62979;55.720;37.606;2023-04-25T00:54:36;99568.53;;;16.92;35.77
74561;BME280;62979;55.720;37.606;2023-04-25T00:57:05;99560.69;;;16.73;36.16
74561;BME280;62979;55.720;37.606;2023-04-25T00:59:33;99574.91;;;16.70;36.36
74561;BME280;62979;55.720;37.606;2023-04-25T01:02:00;99575.19;;;16.65;36.84
74561;BME280;62979;55.720;37.606;2023-04-25T01:04:27;99575.41;;;16.61;36.41
74561;BME280;62979;55.720;37.606;2023-04-25T01:06:54;99575.31;;;16.62;36.70
74561;BME280;62979;55.720;37.606;2023-04-25T01:09:22;99570.44;;;16.55;36.63
74561;BME280;62979;55.720;37.606;2023-04-25T01:11:49;99570.97;;;16.61;36.92
74561;BME280;62979;55.720;37.606;2023-04-25T01:14:18;99557.00;;;16.59;36.73
74561;BME280;62979;55.720;37.606;2023-04-25T01:16:45;99556.28;;;16.73;36.52
74561;BME280;62979;55.720;37.606;2023-04-25T01:19:16;99563.19;;;16.76;36.45
74561;BME280;62979;55.720;37.606;2023-04-25T01:21:45;99561.25;;;16.79;36.52
74561;BME280;62979;55.720;37.606;2023-04-25T01:24:13;99560.34;;;16.80;36.39
74561;BME280;62979;55.720;37.606;2023-04-25T01:26:41;99557.44;;;16.85;36.21
74561;BME280;62979;55.720;37.606;2023-04-25T01:29:15;99547.41;;;16.92;36.07
74561;BME280;62979;55.720;37.606;2023-04-25T01:31:42;99545.72;;;16.90;36.44
74561;BME280;62979;55.720;37.606;2023-04-25T01:34:09;99543.94;;;16.91;35.99
74561;BME280;62979;55.720;37.606;2023-04-25T01:36:36;99547.34;;;16.93;36.26
74561;BME280;62979;55.720;37.606;2023-04-25T01:39:05;99546.41;;;16.94;36.15
74561;BME280;62979;55.720;37.606;2023-04-25T01:41:32;99547.81;;;16.84;36.76
74561;BME280;62979;55.720;37.606;2023-04-25T01:44:01;99508.47;;;16.62;37.32
74561;BME280;62979;55.720;37.606;2023-04-25T01:46:28;99529.50;;;16.81;37.12
74561;BME280;62979;55.720;37.606;2023-04-25T01:48:56;99547.03;;;16.82;37.18
74561;BME280;62979;55.720;37.606;2023-04-25T01:51:23;99539.13;;;16.82;36.88
74561;BME280;62979;55.720;37.606;2023-04-25T01:53:50;99550.22;;;16.88;36.83
74561;BME280;62979;55.720;37.606;2023-04-25T01:56:19;99543.16;;;16.89;37.08
74561;BME280;62979;55.720;37.606;2023-04-25T01:58:46;99535.47;;;16.84;36.99
74561;BME280;62979;55.720;37.606;2023-04-25T02:01:13;99507.13;;;16.71;37.56
74561;BME280;62979;55.720;37.606;2023-04-25T02:03:40;99535.31;;;16.87;37.20
74561;BME280;62979;55.720;37.606;2023-04-25T02:06:06;99523.09;;;16.85;37.08
74561;BME280;62979;55.720;37.606;2023-04-25T02:08:33;99523.75;;;16.90;36.58
74561;BME280;62979;55.720;37.606;2023-04-25T02:11:02;99524.66;;;16.89;36.66
74561;BME280;62979;55.720;37.606;2023-04-25T02:13:30;99521.84;;;16.92;37.19
74561;BME280;62979;55.720;37.606;2023-04-25T02:15:57;99523.75;;;16.90;37.19
74561;BME280;62979;55.720;37.606;2023-04-25T02:18:24;99530.72;;;16.91;37.40
74561;BME280;62979;55.720;37.606;2023-04-25T02:20:51;99527.06;;;16.94;37.04
74561;BME280;62979;55.720;37.606;2023-04-25T02:23:18;99532.16;;;16.97;36.98
74561;BME280;62979;55.720;37.606;2023-04-25T02:25:45;99526.22;;;16.93;36.73
74561;BME280;62979;55.720;37.606;2023-04-25T02:28:12;99525.25;;;16.94;37.10
74561;BME280;62979;55.720;37.606;2023-04-25T02:30:40;99507.63;;;16.77;38.18
74561;BME280;62979;55.720;37.606;2023-04-25T02:33:07;99527.91;;;16.94;37.79
74561;BME280;62979;55.720;37.606;2023-04-25T02:35:34;99525.44;;;16.91;38.18
74561;BME280;62979;55.720;37.606;2023-04-25T02:38:01;99524.66;;;16.89;39.01
74561;BME280;62979;55.720;37.606;2023-04-25T02:40:28;99530.78;;;16.89;38.28
74561;BME280;62979;55.720;37.606;2023-04-25T02:42:55;99528.69;;;16.96;37.64
74561;BME280;62979;55.720;37.606;2023-04-25T02:45:22;99521.72;;;16.95;37.48
74561;BME280;62979;55.720;37.606;2023-04-25T02:47:50;99528.38;;;17.02;36.77
74561;BME280;62979;55.720;37.606;2023-04-25T02:50:17;99520.34;;;17.04;36.60
74561;BME280;62979;55.720;37.606;2023-04-25T02:52:44;99509.78;;;17.04;36.52
74561;BME280;62979;55.720;37.606;2023-04-25T02:55:12;99521.81;;;17.09;37.08
74561;BME280;62979;55.720;37.606;2023-04-25T02:57:39;99519.34;;;17.22;37.19
74561;BME280;62979;55.720;37.606;2023-04-25T03:00:07;99534.53;;;17.50;36.97
74561;BME280;62979;55.720;37.606;2023-04-25T03:02:37;99529.47;;;17.77;35.76
74561;BME280;62979;55.720;37.606;2023-04-25T03:05:05;99531.81;;;18.00;35.48
74561;BME280;62979;55.720;37.606;2023-04-25T03:07:32;99533.84;;;17.94;36.06
74561;BME280;62979;55.720;37.606;2023-04-25T03:09:59;99537.31;;;18.11;35.25
74561;BME280;62979;55.720;37.606;2023-04-25T03:12:26;99539.34;;;18.22;34.72
74561;BME280;62979;55.720;37.606;2023-04-25T03:14:53;99540.97;;;18.24;34.57
74561;BME280;62979;55.720;37.606;2023-04-25T03:17:20;99540.66;;;18.29;34.71
74561;BME280;62979;55.720;37.606;2023-04-25T03:19:47;99544.19;;;18.29;34.39
74561;BME280;62979;55.720;37.606;2023-04-25T03:22:15;99539.94;;;18.27;34.58
74561;BME280;62979;55.720;37.606;2023-04-25T03:24:42;99544.78;;;18.34;34.50
74561;BME280;62979;55.720;37.606;2023-04-25T03:27:09;99544.50;;;18.39;34.32
74561;BME280;62979;55.720;37.606;2023-04-25T03:29:36;99542.91;;;18.21;34.52
74561;BME280;62979;55.720;37.606;2023-04-25T03:32:03;99541.31;;;18.18;34.70
74561;BME280;62979;55.720;37.606;2023-04-25T03:34:30;99548.75;;;18.11;34.87
74561;BME280;62979;55.720;37.606;2023-04-25T03:36:57;99550.41;;;17.98;35.17
74561;BME280;62979;55.720;37.606;2023-04-25T03:39:25;99550.09;;;17.88;35.48
74561;BME280;62979;55.720;37.606;2023-04-25T03:41:52;99553.50;;;17.90;35.56
74561;BME280;62979;55.720;37.606;2023-04-25T03:44:19;99549.88;;;17.60;36.41
74561;BME280;62979;55.720;37.606;2023-04-25T03:46:46;99550.56;;;17.47;36.61
74561;BME280;62979;55.720;37.606;2023-04-25T03:49:13;99544.78;;;17.57;36.39
74561;BME280;62979;55.720;37.606;2023-04-25T03:51:40;99541.53;;;17.67;36.28
74561;BME280;62979;55.720;37.606;2023-04-25T03:54:07;99547.03;;;17.80;36.13
74561;BME280;62979;55.720;37.606;2023-04-25T03:56:35;99546.56;;;17.56;36.73
74561;BME280;62979;55.720;37.606;2023-04-25T03:59:02;99548.28;;;17.41;37.16
74561;BME280;62979;55.720;37.606;2023-04-25T04:01:29;99548.19;;;17.59;37.17
74561;BME280;62979;55.720;37.606;2023-04-25T04:03:56;99541.78;;;17.79;37.13
74561;BME280;62979;55.720;37.606;2023-04-25T04:06:22;99547.84;;;17.96;37.45
74561;BME280;62979;55.720;37.606;2023-04-25T04:08:49;99541.06;;;18.07;36.98
74561;BME280;62979;55.720;37.606;2023-04-25T04:11:16;99537.84;;;18.02;37.58
74561;BME280;62979;55.720;37.606;2023-04-25T04:13:44;99522.16;;;17.99;37.30
74561;BME280;62979;55.720;37.606;2023-04-25T04:16:11;99541.69;;;17.96;37.89
74561;BME280;62979;55.720;37.606;2023-04-25T04:18:38;99542.31;;;17.85;37.87
74561;BME280;62979;55.720;37.606;2023-04-25T04:21:05;99543.56;;;17.78;37.63
74561;BME280;62979;55.720;37.606;2023-04-25T04:23:32;99541.63;;;17.66;37.71
74561;BME280;62979;55.720;37.606;2023-04-25T04:25:59;99542.81;;;17.76;38.31
74561;BME280;62979;55.720;37.606;2023-04-25T04:28:26;99532.47;;;17.87;38.06
74561;BME280;62979;55.720;37.606;2023-04-25T04:30:55;99542.22;;;17.87;37.93
74561;BME280;62979;55.720;37.606;2023-04-25T04:33:21;99549.06;;;17.91;38.10
74561;BME280;62979;55.720;37.606;2023-04-25T04:35:49;99540.94;;;17.78;38.20
74561;BME280;62979;55.720;37.606;2023-04-25T04:38:17;99517.13;;;17.78;38.15
74561;BME280;62979;55.720;37.606;2023-04-25T04:40:45;99528.88;;;18.04;37.67
74561;BME280;62979;55.720;37.606;2023-04-25T04:43:13;99555.00;;;18.10;37.32
74561;BME280;62979;55.720;37.606;2023-04-25T04:45:43;99549.88;;;18.07;37.67
74561;BME280;62979;55.720;37.606;2023-04-25T04:48:11;99545.38;;;18.24;37.67
74561;BME280;62979;55.720;37.606;2023-04-25T04:50:39;99544.72;;;18.20;37.12
74561;BME280;62979;55.720;37.606;2023-04-25T04:53:07;99547.75;;;18.28;37.54
74561;BME280;62979;55.720;37.606;2023-04-25T04:55:34;99540.41;;;18.33;37.11
74561;BME280;62979;55.720;37.606;2023-04-25T04:58:00;99538.41;;;18.23;36.78
74561;BME280;62979;55.720;37.606;2023-04-25T05:00:27;99530.91;;;18.15;37.31
74561;BME280;62979;55.720;37.606;2023-04-25T05:02:54;99534.91;;;18.22;36.82
74561;BME280;62979;55.720;37.606;2023-04-25T05:05:23;99528.03;;;18.04;37.09
74561;BME280;62979;55.720;37.606;2023-04-25T05:07:50;99539.81;;;17.98;37.31
74561;BME280;62979;55.720;37.606;2023-04-25T05:10:18;99519.75;;;17.94;37.56
74561;BME280;62979;55.720;37.606;2023-04-25T05:12:45;99532.84;;;18.27;37.48
74561;BME280;62979;55.720;37.606;2023-04-25T05:15:12;99526.84;;;18.54;37.08
74561;BME280;62979;55.720;37.606;2023-04-25T05:17:40;99515.13;;;18.72;36.63
74561;BME280;62979;55.720;37.606;2023-04-25T05:20:07;99525.00;;;18.85;35.93
74561;BME280;62979;55.720;37.606;2023-04-25T05:22:36;99517.06;;;18.85;36.00
74561;BME280;62979;55.720;37.606;2023-04-25T05:25:04;99525.00;;;18.85;36.19
74561;BME280;62979;55.720;37.606;2023-04-25T05:27:32;99525.72;;;18.72;35.86
74561;BME280;62979;55.720;37.606;2023-04-25T05:29:59;99533.06;;;18.53;36.34
74561;BME280;62979;55.720;37.606;2023-04-25T05:32:26;99529.66;;;18.36;36.25
74561;BME280;62979;55.720;37.606;2023-04-25T05:34:53;99519.19;;;18.49;36.28
74561;BME280;62979;55.720;37.606;2023-04-25T05:37:20;99521.13;;;18.46;36.43
74561;BME280;62979;55.720;37.606;2023-04-25T05:39:48;99494.66;;;18.31;36.07
74561;BME280;62979;55.720;37.606;2023-04-25T05:42:15;99524.56;;;18.48;36.08
74561;BME280;62979;55.720;37.606;2023-04-25T05:44:42;99513.78;;;18.65;36.50
74561;BME280;62979;55.720;37.606;2023-04-25T05:47:09;99518.50;;;18.90;36.07
74561;BME280;62979;55.720;37.606;2023-04-25T05:49:36;99507.78;;;19.06;35.79
74561;BME280;62979;55.720;37.606;2023-04-25T05:52:03;99502.75;;;19.16;35.87
74561;BME280;62979;55.720;37.606;2023-04-25T05:54:30;99513.03;;;19.35;35.48
74561;BME280;62979;55.720;37.606;2023-04-25T05:56:58;99515.28;;;19.41;35.00
74561;BME280;62979;55.720;37.606;2023-04-25T05:59:25;99518.16;;;19.38;34.83
74561;BME280;62979;55.720;37.606;2023-04-25T06:01:52;99509.38;;;19.23;34.91
74561;BME280;62979;55.720;37.606;2023-04-25T06:04:20;99502.47;;;19.06;35.30
74561;BME280;62979;55.720;37.606;2023-04-25T06:06:46;99499.53;;;19.11;35.30
74561;BME280;62979;55.720;37.606;2023-04-25T06:09:13;99505.66;;;19.25;35.01
74561;BME280;62979;55.720;37.606;2023-04-25T06:11:40;99500.06;;;19.30;34.96
74561;BME280;62979;55.720;37.606;2023-04-25T06:14:09;99496.94;;;19.38;34.89
74561;BME280;62979;55.720;37.606;2023-04-25T06:16:36;99492.38;;;19.40;34.65
74561;BME280;62979;55.720;37.606;2023-04-25T06:19:02;99489.22;;;19.48;34.73
74561;BME280;62979;55.720;37.606;2023-04-25T06:21:29;99487.63;;;19.45;34.47
74561;BME280;62979;55.720;37.606;2023-04-25T06:23:56;99478.34;;;19.52;34.41
74561;BME280;62979;55.720;37.606;2023-04-25T06:26:23;99478.38;;;19.65;34.38
74561;BME280;62979;55.720;37.606;2023-04-25T06:28:50;99469.31;;;19.69;33.56
74561;BME280;62979;55.720;37.606;2023-04-25T06:31:19;99478.06;;;19.84;33.26
74561;BME280;62979;55.720;37.606;2023-04-25T06:33:46;99472.41;;;19.76;32.69
74561;BME280;62979;55.720;37.606;2023-04-25T06:36:13;99485.03;;;19.58;32.86
74561;BME280;62979;55.720;37.606;2023-04-25T06:38:40;99482.78;;;19.52;33.33
74561;BME280;62979;55.720;37.606;2023-04-25T06:41:07;99486.19;;;19.68;33.28
74561;BME280;62979;55.720;37.606;2023-04-25T06:43:34;99475.41;;;19.84;33.18
74561;BME280;62979;55.720;37.606;2023-04-25T06:46:00;99476.69;;;19.91;32.14
74561;BME280;62979;55.720;37.606;2023-04-25T06:48:29;99483.81;;;19.91;32.28
74561;BME280;62979;55.720;37.606;2023-04-25T06:50:56;99483.16;;;19.87;32.33
74561;BME280;62979;55.720;37.606;2023-04-25T06:53:23;99484.97;;;19.99;32.51
74561;BME280;62979;55.720;37.606;2023-04-25T06:55:50;99484.91;;;20.14;31.80
74561;BME280;62979;55.720;37.606;2023-04-25T06:58:17;99478.59;;;20.29;31.49
74561;BME280;62979;55.720;37.606;2023-04-25T07:00:44;99471.91;;;20.36;31.15
74561;BME280;62979;55.720;37.606;2023-04-25T07:03:11;99473.91;;;20.33;30.65
74561;BME280;62979;55.720;37.606;2023-04-25T07:05:39;99481.72;;;20.08;31.33
74561;BME280;62979;55.720;37.606;2023-04-25T07:08:06;99484.59;;;20.05;31.85
74561;BME280;62979;55.720;37.606;2023-04-25T07:10:33;99486.41;;;20.18;32.17
74561;BME280;62979;55.720;37.606;2023-04-25T07:13:00;99483.53;;;20.21;32.30
74561;BME280;62979;55.720;37.606;2023-04-25T07:15:27;99481.78;;;20.34;32.56
74561;BME280;62979;55.720;37.606;2023-04-25T07:17:54;99476.47;;;20.34;33.09
74561;BME280;62979;55.720;37.606;2023-04-25T07:20:21;99470.28;;;20.34;31.39
74561;BME280;62979;55.720;37.606;2023-04-25T07:22:49;99483.28;;;20.51;31.55
74561;BME280;62979;55.720;37.606;2023-04-25T07:25:16;99467.34;;;20.64;31.27
74561;BME280;62979;55.720;37.606;2023-04-25T07:27:43;99471.91;;;20.74;30.29
74561;BME280;62979;55.720;37.606;2023-04-25T07:30:11;99469.06;;;20.78;30.41
74561;BME280;62979;55.720;37.606;2023-04-25T07:32:38;99469.16;;;20.76;30.82
74561;BME280;62979;55.720;37.606;2023-04-25T07:35:06;99454.81;;;20.79;31.11
74561;BME280;62979;55.720;37.606;2023-04-25T07:37:33;99464.13;;;20.97;30.70
74561;BME280;62979;55.720;37.606;2023-04-25T07:40:03;99478.16;;;21.12;30.17
74561;BME280;62979;55.720;37.606;2023-04-25T07:42:30;99473.00;;;21.22;29.99
74561;BME280;62979;55.720;37.606;2023-04-25T07:44:58;99468.06;;;21.28;29.56
74561;BME280;62979;55.720;37.606;2023-04-25T07:47:25;99462.56;;;21.31;29.70
74561;BME280;62979;55.720;37.606;2023-04-25T07:49:52;99466.91;;;21.32;29.19
74561;BME280;62979;55.720;37.606;2023-04-25T07:52:19;99477.75;;;21.42;30.18
74561;BME280;62979;55.720;37.606;2023-04-25T07:54:46;99474.25;;;21.42;30.00
74561;BME280;62979;55.720;37.606;2023-04-25T07:57:15;99458.94;;;21.32;29.96
74561;BME280;62979;55.720;37.606;2023-04-25T07:59:42;99480.63;;;21.26;29.78
74561;BME280;62979;55.720;37.606;2023-04-25T08:02:09;99469.78;;;21.29;29.57
74561;BME280;62979;55.720;37.606;2023-04-25T08:04:36;99475.31;;;21.26;29.88
74561;BME280;62979;55.720;37.606;2023-04-25T08:07:05;99467.13;;;21.29;30.11
74561;BME280;62979;55.720;37.606;2023-04-25T08:09:32;99463.06;;;21.00;30.42
74561;BME280;62979;55.720;37.606;2023-04-25T08:12:00;99474.13;;;20.93;31.18
74561;BME280;62979;55.720;37.606;2023-04-25T08:14:30;99475.63;;;20.85;31.27
74561;BME280;62979;55.720;37.606;2023-04-25T08:17:01;99473.75;;;20.61;31.58
74561;BME280;62979;55.720;37.606;2023-04-25T08:19:28;99472.66;;;20.64;31.95
74561;BME280;62979;55.720;37.606;2023-04-25T08:21:55;99459.03;;;20.81;31.90
74561;BME280;62979;55.720;37.606;2023-04-25T08:24:22;99472.88;;;21.23;30.82
74561;BME280;62979;55.720;37.606;2023-04-25T08:26:49;99472.03;;;21.23;30.34
74561;BME280;62979;55.720;37.606;2023-04-25T08:29:16;99468.59;;;21.33;29.91
74561;BME280;62979;55.720;37.606;2023-04-25T08:31:44;99434.84;;;21.47;29.94
74561;BME280;62979;55.720;37.606;2023-04-25T08:34:11;99451.09;;;21.55;30.04
74561;BME280;62979;55.720;37.606;2023-04-25T08:36:38;99459.75;;;21.46;30.34
74561;BME280;62979;55.720;37.606;2023-04-25T08:39:05;99466.47;;;21.38;30.66
74561;BME280;62979;55.720;37.606;2023-04-25T08:41:32;99467.41;;;21.37;30.31
74561;BME280;62979;55.720;37.606;2023-04-25T08:44:00;99440.81;;;21.37;30.38
74561;BME280;62979;55.720;37.606;2023-04-25T08:46:30;99456.50;;;21.77;29.34
74561;BME280;62979;55.720;37.606;2023-04-25T08:49:01;99455.88;;;21.98;29.04
74561;BME280;62979;55.720;37.606;2023-04-25T08:51:31;99444.88;;;22.02;29.39
74561;BME280;62979;55.720;37.606;2023-04-25T08:54:09;99422.00;;;22.00;29.30
74561;BME280;62979;55.720;37.606;2023-04-25T08:56:37;99436.41;;;22.09;29.02
74561;BME280;62979;55.720;37.606;2023-04-25T08:59:07;99426.38;;;22.12;28.86
74561;BME280;62979;55.720;37.606;2023-04-25T09:01:34;99427.41;;;22.22;28.19
74561;BME280;62979;55.720;37.606;2023-04-25T09:04:03;99431.53;;;22.27;28.14
74561;BME280;62979;55.720;37.606;2023-04-25T09:06:30;99436.16;;;22.47;27.25
74561;BME280;62979;55.720;37.606;2023-04-25T09:09:02;99427.81;;;22.74;25.66
74561;BME280;62979;55.720;37.606;2023-04-25T09:11:30;99420.66;;;22.86;25.75
74561;BME280;62979;55.720;37.606;2023-04-25T09:14:11;99416.53;;;22.82;25.48
74561;BME280;62979;55.720;37.606;2023-04-25T09:16:58;99415.69;;;22.81;24.69
74561;BME280;62979;55.720;37.606;2023-04-25T09:19:28;99424.19;;;22.98;24.70
74561;BME280;62979;55.720;37.606;2023-04-25T09:21:58;99425.47;;;22.92;24.28
74561;BME280;62979;55.720;37.606;2023-04-25T09:24:33;99424.03;;;22.99;25.65
74561;BME280;62979;55.720;37.606;2023-04-25T09:27:04;99393.50;;;23.03;24.86
74561;BME280;62979;55.720;37.606;2023-04-25T09:29:33;99416.22;;;23.41;24.96
74561;BME280;62979;55.720;37.606;2023-04-25T09:32:15;99407.38;;;23.62;25.14
74561;BME280;62979;55.720;37.606;2023-04-25T09:34:47;99419.69;;;23.85;24.41
74561;BME280;62979;55.720;37.606;2023-04-25T09:37:19;99409.94;;;23.96;24.58
74561;BME280;62979;55.720;37.606;2023-04-25T09:39:47;99409.47;;;24.11;24.14
74561;BME280;62979;55.720;37.606;2023-04-25T09:42:15;99400.13;;;24.48;23.74
74561;BME280;62979;55.720;37.606;2023-04-25T09:44:44;99397.81;;;24.64;23.67
74561;BME280;62979;55.720;37.606;2023-04-25T09:47:13;99402.25;;;24.85;23.18
74561;BME280;62979;55.720;37.606;2023-04-25T09:49:42;99406.75;;;24.84;23.25
74561;BME280;62979;55.720;37.606;2023-04-25T09:52:14;99380.75;;;25.06;22.38
74561;BME280;62979;55.720;37.606;2023-04-25T09:54:42;99399.47;;;24.96;21.90
74561;BME280;62979;55.720;37.606;2023-04-25T09:57:11;99387.75;;;24.87;22.36
74561;BME280;62979;55.720;37.606;2023-04-25T09:59:43;99396.97;;;25.14;22.58
74561;BME280;62979;55.720;37.606;2023-04-25T10:02:12;99394.97;;;25.06;22.41
74561;BME280;62979;55.720;37.606;2023-04-25T10:04:40;99396.88;;;24.85;22.78
74561;BME280;62979;55.720;37.606;2023-04-25T10:07:08;99386.25;;;25.04;22.94
74561;BME280;62979;55.720;37.606;2023-04-25T10:09:38;99394.22;;;25.45;22.13
74561;BME280;62979;55.720;37.606;2023-04-25T10:12:06;99386.31;;;26.01;21.71
74561;BME280;62979;55.720;37.606;2023-04-25T10:14:34;99383.25;;;26.43;21.43
74561;BME280;62979;55.720;37.606;2023-04-25T10:17:01;99384.19;;;26.62;20.87
74561;BME280;62979;55.720;37.606;2023-04-25T10:19:28;99385.56;;;27.21;20.05
74561;BME280;62979;55.720;37.606;2023-04-25T10:22:02;99372.53;;;27.62;20.03
74561;BME280;62979;55.720;37.606;2023-04-25T10:24:34;99374.09;;;28.09;19.53
74561;BME280;62979;55.720;37.606;2023-04-25T10:27:02;99367.78;;;28.18;19.32
74561;BME280;62979;55.720;37.606;2023-04-25T10:29:30;99371.44;;;28.43;19.28
74561;BME280;62979;55.720;37.606;2023-04-25T10:31:57;99360.81;;;28.68;18.76
74561;BME280;62979;55.720;37.606;2023-04-25T10:34:37;99370.00;;;28.91;18.70
74561;BME280;62979;55.720;37.606;2023-04-25T10:37:05;99359.63;;;29.05;18.38
74561;BME280;62979;55.720;37.606;2023-04-25T10:39:39;99343.06;;;28.91;18.35
74561;BME280;62979;55.720;37.606;2023-04-25T10:42:07;99353.63;;;29.27;18.30
74561;BME280;62979;55.720;37.606;2023-04-25T10:44:36;99341.16;;;29.42;18.43
74561;BME280;62979;55.720;37.606;2023-04-25T10:47:06;99340.00;;;29.45;18.85
74561;BME280;62979;55.720;37.606;2023-04-25T10:49:36;99348.22;;;30.25;17.22
74561;BME280;62979;55.720;37.606;2023-04-25T10:52:11;99336.06;;;30.21;17.34
74561;BME280;62979;55.720;37.606;2023-04-25T10:54:42;99345.38;;;29.37;18.23
74561;BME280;62979;55.720;37.606;2023-04-25T10:57:35;99327.97;;;29.07;18.38
74561;BME280;62979;55.720;37.606;2023-04-25T11:00:09;99327.34;;;29.21;18.53
74561;BME280;62979;55.720;37.606;2023-04-25T11:02:42;99323.81;;;29.45;18.12
74561;BME280;62979;55.720;37.606;2023-04-25T11:05:17;99325.38;;;29.56;18.50
74561;BME280;62979;55.720;37.606;2023-04-25T11:07:50;99324.81;;;29.36;18.48
74561;BME280;62979;55.720;37.606;2023-04-25T11:10:25;99326.50;;;29.29;18.73
74561;BME280;62979;55.720;37.606;2023-04-25T11:12:52;99312.22;;;29.77;18.26
74561;BME280;62979;55.720;37.606;2023-04-25T11:15:19;99302.47;;;30.40;17.97
74561;BME280;62979;55.720;37.606;2023-04-25T11:17:46;99309.97;;;30.61;17.67
74561;BME280;62979;55.720;37.606;2023-04-25T11:20:13;99299.59;;;30.42;17.20
74561;BME280;62979;55.720;37.606;2023-04-25T11:22:41;99296.75;;;30.43;17.34
74561;BME280;62979;55.720;37.606;2023-04-25T11:25:12;99295.00;;;30.03;17.87
74561;BME280;62979;55.720;37.606;2023-04-25T11:27:50;99296.28;;;30.63;17.58
74561;BME280;62979;55.720;37.606;2023-04-25T11:30:19;99285.63;;;30.69;17.46
74561;BME280;62979;55.720;37.606;2023-04-25T11:32:47;99290.03;;;31.25;16.80
74561;BME280;62979;55.720;37.606;2023-04-25T11:35:14;99280.94;;;31.64;15.97
74561;BME280;62979;55.720;37.606;2023-04-25T11:37:42;99272.03;;;31.40;16.50
74561;BME280;62979;55.720;37.606;2023-04-25T11:40:10;99263.94;;;31.17;16.67
74561;BME280;62979;55.720;37.606;2023-04-25T11:42:38;99266.84;;;30.84;16.86
74561;BME280;62979;55.720;37.606;2023-04-25T11:45:11;99269.63;;;30.68;17.27
74561;BME280;62979;55.720;37.606;2023-04-25T11:47:39;99261.09;;;30.87;17.29
74561;BME280;62979;55.720;37.606;2023-04-25T11:50:08;99258.28;;;30.72;17.39
74561;BME280;62979;55.720;37.606;2023-04-25T11:52:39;99250.69;;;29.97;18.15
74561;BME280;62979;55.720;37.606;2023-04-25T11:55:09;99254.56;;;29.95;17.66
74561;BME280;62979;55.720;37.606;2023-04-25T11:57:39;99258.97;;;29.88;17.75
74561;BME280;62979;55.720;37.606;2023-04-25T12:00:11;99246.53;;;29.54;17.61
74561;BME280;62979;55.720;37.606;2023-04-25T12:02:42;99240.63;;;29.50;17.78
74561;BME280;62979;55.720;37.606;2023-04-25T12:05:11;99246.72;;;29.36;18.04
74561;BME280;62979;55.720;37.606;2023-04-25T12:07:39;99247.53;;;28.95;18.20
74561;BME280;62979;55.720;37.606;2023-04-25T12:10:09;99247.19;;;28.98;18.67
74561;BME280;62979;55.720;37.606;2023-04-25T12:12:41;99233.94;;;29.13;18.47
74561;BME280;62979;55.720;37.606;2023-04-25T12:15:12;99231.03;;;29.48;18.59
74561;BME280;62979;55.720;37.606;2023-04-25T12:17:44;99224.66;;;29.32;18.58
74561;BME280;62979;55.720;37.606;2023-04-25T12:20:13;99226.03;;;29.12;19.08
74561;BME280;62979;55.720;37.606;2023-04-25T12:22:42;99226.97;;;28.78;19.49
74561;BME280;62979;55.720;37.606;2023-04-25T12:25:12;99216.88;;;28.64;19.82
74561;BME280;62979;55.720;37.606;2023-04-25T12:27:40;99222.09;;;28.31;19.95
74561;BME280;62979;55.720;37.606;2023-04-25T12:30:11;99205.88;;;27.98;20.76
74561;BME280;62979;55.720;37.606;2023-04-25T12:32:38;99211.44;;;28.05;20.60
74561;BME280;62979;55.720;37.606;2023-04-25T12:35:05;99211.31;;;28.14;20.56
74561;BME280;62979;55.720;37.606;2023-04-25T12:37:33;99196.78;;;27.99;20.35
74561;BME280;62979;55.720;37.606;2023-04-25T12:39:59;99197.97;;;27.70;20.92
74561;BME280;62979;55.720;37.606;2023-04-25T12:42:26;99190.16;;;27.51;21.23
74561;BME280;62979;55.720;37.606;2023-04-25T12:44:53;99193.78;;;27.42;20.91
74561;BME280;62979;55.720;37.606;2023-04-25T12:47:21;99182.97;;;27.60;20.66
74561;BME280;62979;55.720;37.606;2023-04-25T12:49:48;99182.63;;;27.63;20.58
74561;BME280;62979;55.720;37.606;2023-04-25T12:52:15;99180.13;;;27.61;21.12
74561;BME280;62979;55.720;37.606;2023-04-25T12:54:42;99174.25;;;27.92;20.92